createdAt,value
2018-07-10T00:00:29.316Z,97838.69
2018-07-10T00:01:00.898Z,97836.98
2018-07-10T00:01:32.501Z,97839.98
2018-07-10T00:02:04.154Z,97836.14
2018-07-10T00:02:35.728Z,97833.62
2018-07-10T00:03:07.328Z,97837.49
2018-07-10T00:03:38.900Z,97833.24
2018-07-10T00:04:10.513Z,97834.53
2018-07-10T00:04:42.090Z,97834.09
2018-07-10T00:05:13.670Z,97830.31
2018-07-10T00:05:45.273Z,97826.45
2018-07-10T00:06:16.885Z,97829.89
2018-07-10T00:06:48.504Z,97829.47
2018-07-10T00:07:20.115Z,97824.80
2018-07-10T00:07:51.761Z,97827.41
2018-07-10T00:08:23.361Z,97830.40
2018-07-10T00:08:54.940Z,97833.83
2018-07-10T00:09:26.540Z,97835.13
2018-07-10T00:09:58.149Z,97836.85
2018-07-10T00:10:29.778Z,97834.70
2018-07-10T00:11:01.357Z,97837.27
2018-07-10T00:11:32.924Z,97830.88
2018-07-10T00:12:04.506Z,97835.14
2018-07-10T00:12:36.105Z,97839.06
2018-07-10T00:13:07.709Z,97833.91
2018-07-10T00:13:39.289Z,97834.80
2018-07-10T00:14:10.924Z,97833.52
2018-07-10T00:14:42.529Z,97837.36
2018-07-10T00:15:14.167Z,97837.80
2018-07-10T00:15:45.735Z,97834.39
2018-07-10T00:16:17.314Z,97834.38
2018-07-10T00:16:48.972Z,97836.54
2018-07-10T00:17:20.559Z,97841.23
2018-07-10T00:17:52.151Z,97831.83
2018-07-10T00:18:23.737Z,97839.97
2018-07-10T00:18:55.304Z,97836.54
2018-07-10T00:19:26.881Z,97834.45
2018-07-10T00:19:58.461Z,97836.11
2018-07-10T00:20:30.033Z,97836.59
2018-07-10T00:21:01.662Z,97833.55
2018-07-10T00:21:33.249Z,97833.60
2018-07-10T00:22:04.816Z,97835.31
2018-07-10T00:22:36.421Z,97830.17
2018-07-10T00:23:08.025Z,97831.90
2018-07-10T00:23:39.629Z,97834.45
2018-07-10T00:24:11.244Z,97828.91
2018-07-10T00:24:42.847Z,97830.20
2018-07-10T00:25:14.457Z,97828.91
2018-07-10T00:25:46.028Z,97829.75
2018-07-10T00:26:17.640Z,97826.77
2018-07-10T00:26:49.217Z,97824.20
2018-07-10T00:27:20.797Z,97819.11
2018-07-10T00:27:52.387Z,97824.24
2018-07-10T00:28:23.965Z,97825.50
2018-07-10T00:28:55.535Z,97821.25
2018-07-10T00:29:27.133Z,97820.48
2018-07-10T00:29:58.713Z,97820.88
2018-07-10T00:30:30.297Z,97819.05
2018-07-10T00:31:01.966Z,97817.72
2018-07-10T00:31:33.543Z,97819.41
2018-07-10T00:32:05.146Z,97820.19
2018-07-10T00:32:36.716Z,97826.66
2018-07-10T00:33:08.316Z,97818.25
2018-07-10T00:33:39.921Z,97818.52
2018-07-10T00:34:11.524Z,97823.66
2018-07-10T00:34:43.130Z,97817.34
2018-07-10T00:35:14.710Z,97823.23
2018-07-10T00:35:46.290Z,97820.66
2018-07-10T00:36:17.925Z,97824.53
2018-07-10T00:36:49.491Z,97824.55
2018-07-10T00:37:21.069Z,97821.13
2018-07-10T00:37:52.654Z,97821.98
2018-07-10T00:38:24.261Z,97817.30
2018-07-10T00:38:55.832Z,97818.63
2018-07-10T00:39:27.424Z,97814.36
2018-07-10T00:39:59.016Z,97815.64
2018-07-10T00:40:30.625Z,97810.97
2018-07-10T00:41:02.236Z,97811.38
2018-07-10T00:41:33.865Z,97814.80
2018-07-10T00:42:05.449Z,97810.95
2018-07-10T00:42:37.049Z,97813.96
2018-07-10T00:43:08.675Z,97810.55
2018-07-10T00:43:40.268Z,97808.41
2018-07-10T00:44:11.859Z,97805.05
2018-07-10T00:44:43.450Z,97807.56
2018-07-10T00:45:15.030Z,97808.91
2018-07-10T00:45:46.629Z,97803.79
2018-07-10T00:46:18.213Z,97806.78
2018-07-10T00:46:49.799Z,97802.11
2018-07-10T00:47:21.386Z,97798.31
2018-07-10T00:47:52.984Z,97799.96
2018-07-10T00:48:24.618Z,97809.80
2018-07-10T00:48:56.229Z,97800.41
2018-07-10T00:49:27.800Z,97799.96
2018-07-10T00:49:59.378Z,97801.30
2018-07-10T00:50:30.961Z,97797.03
2018-07-10T00:51:02.528Z,97799.59
2018-07-10T00:51:34.112Z,97800.02
2018-07-10T00:52:05.708Z,97797.05
2018-07-10T00:52:37.292Z,97797.47
2018-07-10T00:53:08.896Z,97797.91
2018-07-10T00:53:40.527Z,97793.22
2018-07-10T00:54:12.129Z,97792.78
2018-07-10T00:54:43.710Z,97796.63
2018-07-10T00:55:15.289Z,97795.34
2018-07-10T00:55:46.865Z,97799.61
2018-07-10T00:56:18.473Z,97794.50
2018-07-10T00:56:50.054Z,97802.62
2018-07-10T00:57:21.637Z,97800.47
2018-07-10T00:57:53.228Z,97800.47
2018-07-10T00:58:24.814Z,97800.89
2018-07-10T00:58:56.464Z,97811.13
2018-07-10T00:59:28.073Z,97807.70
2018-07-10T00:59:59.678Z,97804.67
2018-07-10T01:00:31.258Z,97808.98
2018-07-10T01:01:02.850Z,97800.89
2018-07-10T01:01:34.469Z,97806.45
2018-07-10T01:02:06.053Z,97805.14
2018-07-10T01:02:37.633Z,97806.78
2018-07-10T01:03:09.233Z,97802.81
2018-07-10T01:03:40.817Z,97805.70
2018-07-10T01:04:12.412Z,97806.47
2018-07-10T01:04:43.998Z,97806.06
2018-07-10T01:05:15.610Z,97803.50
2018-07-10T01:05:47.211Z,97803.04
2018-07-10T01:06:18.863Z,97795.34
2018-07-10T01:06:50.456Z,97799.19
2018-07-10T01:07:22.042Z,97802.12
2018-07-10T01:07:53.616Z,97802.55
2018-07-10T01:08:25.191Z,97799.61
2018-07-10T01:08:56.826Z,97802.17
2018-07-10T01:09:28.424Z,97802.17
2018-07-10T01:10:00.021Z,97800.89
2018-07-10T01:10:31.625Z,97797.05
2018-07-10T01:11:03.238Z,97794.92
2018-07-10T01:11:34.829Z,97800.42
2018-07-10T01:12:06.430Z,97795.38
2018-07-10T01:12:38.039Z,97797.92
2018-07-10T01:13:09.621Z,97795.80
2018-07-10T01:13:41.213Z,97786.45
2018-07-10T01:14:12.882Z,97794.15
2018-07-10T01:14:44.488Z,97791.20
2018-07-10T01:15:16.069Z,97790.77
2018-07-10T01:15:47.644Z,97787.78
2018-07-10T01:16:19.221Z,97781.36
2018-07-10T01:16:50.806Z,97779.66
2018-07-10T01:17:22.381Z,97780.94
2018-07-10T01:17:53.985Z,97781.45
2018-07-10T01:18:25.590Z,97786.09
2018-07-10T01:18:57.295Z,97777.16
2018-07-10T01:19:28.853Z,97779.73
2018-07-10T01:20:00.429Z,97779.75
2018-07-10T01:20:32.006Z,97776.32
2018-07-10T01:21:03.591Z,97769.94
2018-07-10T01:21:35.197Z,97775.92
2018-07-10T01:22:06.791Z,97772.08
2018-07-10T01:22:38.394Z,97773.42
2018-07-10T01:23:09.998Z,97771.30
2018-07-10T01:23:41.601Z,97772.57
2018-07-10T01:24:13.222Z,97770.88
2018-07-10T01:24:44.850Z,97772.98
2018-07-10T01:25:16.501Z,97768.28
2018-07-10T01:25:48.119Z,97772.98
2018-07-10T01:26:19.697Z,97768.67
2018-07-10T01:26:51.325Z,97771.70
2018-07-10T01:27:22.973Z,97770.42
2018-07-10T01:27:54.553Z,97769.56
2018-07-10T01:28:26.133Z,97771.73
2018-07-10T01:28:57.725Z,97770.86
2018-07-10T01:29:29.329Z,97767.03
2018-07-10T01:30:00.963Z,97764.47
2018-07-10T01:30:32.546Z,97760.63
2018-07-10T01:31:04.135Z,97767.87
2018-07-10T01:31:35.763Z,97760.60
2018-07-10T01:32:07.342Z,97758.02
2018-07-10T01:32:38.945Z,97757.08
2018-07-10T01:33:10.528Z,97755.78
2018-07-10T01:33:42.144Z,97757.92
2018-07-10T01:34:13.734Z,97765.63
2018-07-10T01:34:45.332Z,97760.91
2018-07-10T01:35:16.913Z,97754.08
2018-07-10T01:35:48.489Z,97760.05
2018-07-10T01:36:20.090Z,97754.08
2018-07-10T01:36:51.739Z,97751.09
2018-07-10T01:37:23.326Z,97750.23
2018-07-10T01:37:54.910Z,97749.37
2018-07-10T01:38:26.490Z,97756.20
2018-07-10T01:38:58.089Z,97754.50
2018-07-10T01:39:29.660Z,97751.08
2018-07-10T01:40:01.224Z,97754.08
2018-07-10T01:40:32.815Z,97746.80
2018-07-10T01:41:04.426Z,97751.09
2018-07-10T01:41:36.073Z,97744.68
2018-07-10T01:42:08.014Z,97747.69
2018-07-10T01:42:39.619Z,97742.11
2018-07-10T01:43:11.197Z,97749.39
2018-07-10T01:43:42.782Z,97747.27
2018-07-10T01:44:14.409Z,97744.26
2018-07-10T01:44:45.993Z,97741.71
2018-07-10T01:45:17.564Z,97745.13
2018-07-10T01:45:49.178Z,97741.71
2018-07-10T01:46:20.761Z,97747.24
2018-07-10T01:46:52.341Z,97750.23
2018-07-10T01:47:23.927Z,97746.83
2018-07-10T01:47:55.508Z,97748.97
2018-07-10T01:48:27.089Z,97740.41
2018-07-10T01:48:58.689Z,97743.84
2018-07-10T01:49:30.307Z,97743.42
2018-07-10T01:50:01.903Z,97742.13
2018-07-10T01:50:33.486Z,97743.40
2018-07-10T01:51:05.069Z,97743.42
2018-07-10T01:51:36.668Z,97738.30
2018-07-10T01:52:08.282Z,97741.69
2018-07-10T01:52:39.867Z,97744.26
2018-07-10T01:53:11.474Z,97743.42
2018-07-10T01:53:43.081Z,97739.15
2018-07-10T01:54:14.728Z,97740.50
2018-07-10T01:54:46.310Z,97738.37
2018-07-10T01:55:17.890Z,97737.98
2018-07-10T01:55:49.489Z,97742.69
2018-07-10T01:56:21.069Z,97736.75
2018-07-10T01:56:52.663Z,97733.77
2018-07-10T01:57:24.234Z,97740.20
2018-07-10T01:57:55.862Z,97742.76
2018-07-10T01:58:27.470Z,97741.50
2018-07-10T01:58:59.053Z,97739.80
2018-07-10T01:59:30.626Z,97733.88
2018-07-10T02:00:02.274Z,97740.27
2018-07-10T02:00:33.881Z,97740.70
2018-07-10T02:01:05.490Z,97738.63
2018-07-10T02:01:37.079Z,97741.15
2018-07-10T02:02:09.265Z,97740.30
2018-07-10T02:02:40.835Z,97740.30
2018-07-10T02:03:12.428Z,97740.75
2018-07-10T02:03:44.009Z,97741.17
2018-07-10T02:04:15.589Z,97736.90
2018-07-10T02:04:47.193Z,97738.63
2018-07-10T02:05:18.836Z,97736.90
2018-07-10T02:05:50.408Z,97737.32
2018-07-10T02:06:22.014Z,97731.35
2018-07-10T02:06:53.588Z,97731.82
2018-07-10T02:07:25.156Z,97733.11
2018-07-10T02:07:56.765Z,97726.71
2018-07-10T02:08:28.365Z,97731.82
2018-07-10T02:08:59.982Z,97728.41
2018-07-10T02:09:31.555Z,97726.27
2018-07-10T02:10:03.137Z,97728.00
2018-07-10T02:10:34.718Z,97730.98
2018-07-10T02:11:06.322Z,97726.27
2018-07-10T02:11:37.930Z,97724.57
2018-07-10T02:12:09.504Z,97727.13
2018-07-10T02:12:41.085Z,97726.29
2018-07-10T02:13:12.656Z,97732.28
2018-07-10T02:13:44.300Z,97730.56
2018-07-10T02:14:15.885Z,97729.28
2018-07-10T02:14:47.455Z,97723.30
2018-07-10T02:15:19.058Z,97726.29
2018-07-10T02:15:50.628Z,97725.03
2018-07-10T02:16:22.229Z,97725.03
2018-07-10T02:16:53.817Z,97728.02
2018-07-10T02:17:25.441Z,97726.75
2018-07-10T02:17:57.018Z,97725.89
2018-07-10T02:18:28.597Z,97721.23
2018-07-10T02:19:00.180Z,97726.75
2018-07-10T02:19:31.757Z,97723.75
2018-07-10T02:20:03.365Z,97721.60
2018-07-10T02:20:34.946Z,97722.52
2018-07-10T02:21:06.521Z,97716.91
2018-07-10T02:21:38.087Z,97721.63
2018-07-10T02:22:09.719Z,97716.05
2018-07-10T02:22:41.305Z,97715.63
2018-07-10T02:23:12.890Z,97716.49
2018-07-10T02:23:44.471Z,97713.98
2018-07-10T02:24:16.073Z,97715.69
2018-07-10T02:24:47.662Z,97716.55
2018-07-10T02:25:19.241Z,97719.53
2018-07-10T02:25:50.845Z,97719.48
2018-07-10T02:26:22.425Z,97713.06
2018-07-10T02:26:54.005Z,97716.49
2018-07-10T02:27:25.624Z,97713.93
2018-07-10T02:27:57.293Z,97713.54
2018-07-10T02:28:28.900Z,97713.93
2018-07-10T02:29:00.481Z,97711.36
2018-07-10T02:29:32.048Z,97713.05
2018-07-10T02:30:03.658Z,97708.34
2018-07-10T02:30:35.242Z,97713.47
2018-07-10T02:31:06.816Z,97710.04
2018-07-10T02:31:38.461Z,97711.32
2018-07-10T02:32:10.085Z,97714.75
2018-07-10T02:32:41.691Z,97714.33
2018-07-10T02:33:13.260Z,97711.34
2018-07-10T02:33:44.866Z,97716.47
2018-07-10T02:34:16.469Z,97716.47
2018-07-10T02:34:48.073Z,97706.63
2018-07-10T02:35:19.690Z,97709.20
2018-07-10T02:35:51.281Z,97707.50
2018-07-10T02:36:22.862Z,97708.78
2018-07-10T02:36:54.438Z,97713.48
2018-07-10T02:37:26.052Z,97705.80
2018-07-10T02:37:57.653Z,97702.00
2018-07-10T02:38:29.257Z,97707.98
2018-07-10T02:39:00.861Z,97704.56
2018-07-10T02:39:32.469Z,97704.56
2018-07-10T02:40:04.074Z,97707.52
2018-07-10T02:40:35.662Z,97698.96
2018-07-10T02:41:07.245Z,97707.52
2018-07-10T02:41:38.867Z,97700.30
2018-07-10T02:42:10.512Z,97702.88
2018-07-10T02:42:42.149Z,97700.73
2018-07-10T02:43:13.743Z,97703.30
2018-07-10T02:43:45.347Z,97704.16
2018-07-10T02:44:16.937Z,97702.02
2018-07-10T02:44:48.520Z,97699.45
2018-07-10T02:45:20.101Z,97702.02
2018-07-10T02:45:51.668Z,97696.47
2018-07-10T02:46:23.245Z,97702.46
2018-07-10T02:46:54.825Z,97703.74
2018-07-10T02:47:26.479Z,97700.75
2018-07-10T02:47:58.089Z,97700.34
2018-07-10T02:48:29.699Z,97702.48
2018-07-10T02:49:01.283Z,97701.62
2018-07-10T02:49:32.893Z,97695.20
2018-07-10T02:50:04.464Z,97701.62
2018-07-10T02:50:36.057Z,97708.45
2018-07-10T02:51:07.637Z,97705.47
2018-07-10T02:51:39.212Z,97706.75
2018-07-10T02:52:10.822Z,97698.19
2018-07-10T02:52:42.454Z,97708.47
2018-07-10T02:53:14.057Z,97709.31
2018-07-10T02:53:45.633Z,97705.91
2018-07-10T02:54:17.214Z,97711.45
2018-07-10T02:54:48.817Z,97711.45
2018-07-10T02:55:20.411Z,97711.03
2018-07-10T02:55:51.987Z,97706.75
2018-07-10T02:56:23.555Z,97711.88
2018-07-10T02:56:55.166Z,97709.72
2018-07-10T02:57:26.811Z,97707.52
2018-07-10T02:57:58.403Z,97708.34
2018-07-10T02:58:29.990Z,97710.04
2018-07-10T02:59:01.567Z,97703.21
2018-07-10T02:59:33.161Z,97703.62
2018-07-10T03:00:04.751Z,97710.04
2018-07-10T03:00:36.351Z,97709.13
2018-07-10T03:01:07.965Z,97706.61
2018-07-10T03:01:39.572Z,97707.50
2018-07-10T03:02:11.144Z,97710.92
2018-07-10T03:02:42.791Z,97709.55
2018-07-10T03:03:14.377Z,97712.50
2018-07-10T03:03:45.972Z,97705.98
2018-07-10T03:04:17.576Z,97704.19
2018-07-10T03:04:49.181Z,97704.15
2018-07-10T03:05:20.762Z,97706.22
2018-07-10T03:05:52.366Z,97701.07
2018-07-10T03:06:23.954Z,97701.44
2018-07-10T03:06:55.560Z,97704.84
2018-07-10T03:07:27.145Z,97703.12
2018-07-10T03:07:58.766Z,97701.39
2018-07-10T03:08:30.353Z,97704.38
2018-07-10T03:09:01.944Z,97700.95
2018-07-10T03:09:33.569Z,97705.23
2018-07-10T03:10:05.159Z,97697.55
2018-07-10T03:10:36.782Z,97703.52
2018-07-10T03:11:08.389Z,97697.57
2018-07-10T03:11:39.993Z,97706.51
2018-07-10T03:12:11.605Z,97707.37
2018-07-10T03:12:43.217Z,97702.66
2018-07-10T03:13:14.803Z,97707.31
2018-07-10T03:13:46.406Z,97708.66
2018-07-10T03:14:18.034Z,97706.53
2018-07-10T03:14:49.685Z,97697.55
2018-07-10T03:15:21.270Z,97698.01
2018-07-10T03:15:52.877Z,97701.44
2018-07-10T03:16:24.465Z,97704.90
2018-07-10T03:16:56.070Z,97703.22
2018-07-10T03:17:27.753Z,97699.05
2018-07-10T03:17:59.382Z,97701.64
2018-07-10T03:18:30.980Z,97701.26
2018-07-10T03:19:02.585Z,97705.55
2018-07-10T03:19:34.170Z,97702.16
2018-07-10T03:20:05.768Z,97699.61
2018-07-10T03:20:37.345Z,97705.64
2018-07-10T03:21:08.949Z,97703.09
2018-07-10T03:21:40.557Z,97699.27
2018-07-10T03:22:12.137Z,97698.84
2018-07-10T03:22:43.731Z,97702.70
2018-07-10T03:23:15.344Z,97699.29
2018-07-10T03:23:46.951Z,97698.92
2018-07-10T03:24:18.553Z,97695.52
2018-07-10T03:24:50.134Z,97694.67
2018-07-10T03:25:21.723Z,97690.39
2018-07-10T03:25:53.316Z,97695.53
2018-07-10T03:26:24.894Z,97685.77
2018-07-10T03:26:56.542Z,97693.41
2018-07-10T03:27:28.125Z,97688.75
2018-07-10T03:27:59.692Z,97685.77
2018-07-10T03:28:31.287Z,97688.75
2018-07-10T03:29:02.856Z,97687.52
2018-07-10T03:29:34.434Z,97686.21
2018-07-10T03:30:06.101Z,97685.79
2018-07-10T03:30:37.694Z,97686.67
2018-07-10T03:31:09.301Z,97690.09
2018-07-10T03:31:41.937Z,97687.09
2018-07-10T03:32:13.531Z,97682.41
2018-07-10T03:32:45.140Z,97692.66
2018-07-10T03:33:16.722Z,97691.02
2018-07-10T03:33:48.297Z,97687.19
2018-07-10T03:34:19.901Z,97685.88
2018-07-10T03:34:51.476Z,97691.45
2018-07-10T03:35:23.101Z,97689.73
2018-07-10T03:35:54.691Z,97691.45
2018-07-10T03:36:26.334Z,97688.48
2018-07-10T03:36:57.924Z,97694.88
2018-07-10T03:37:29.569Z,97695.30
2018-07-10T03:38:01.173Z,97691.89
2018-07-10T03:38:32.768Z,97694.88
2018-07-10T03:39:04.394Z,97692.31
2018-07-10T03:39:35.974Z,97693.20
2018-07-10T03:40:07.577Z,97689.41
2018-07-10T03:40:39.205Z,97684.27
2018-07-10T03:41:10.785Z,97687.26
2018-07-10T03:41:42.362Z,97689.82
2018-07-10T03:42:13.928Z,97694.53
2018-07-10T03:42:45.495Z,97692.41
2018-07-10T03:43:17.090Z,97692.39
2018-07-10T03:43:48.656Z,97693.27
2018-07-10T03:44:20.237Z,97694.13
2018-07-10T03:44:51.814Z,97691.98
2018-07-10T03:45:23.398Z,97692.84
2018-07-10T03:45:54.974Z,97697.53
2018-07-10T03:46:26.558Z,97695.41
2018-07-10T03:46:58.139Z,97696.25
2018-07-10T03:47:29.721Z,97702.24
2018-07-10T03:48:01.309Z,97699.26
2018-07-10T03:48:32.889Z,97700.98
2018-07-10T03:49:04.470Z,97696.27
2018-07-10T03:49:36.036Z,97697.63
2018-07-10T03:50:07.624Z,97702.27
2018-07-10T03:50:39.243Z,97700.61
2018-07-10T03:51:10.822Z,97698.48
2018-07-10T03:51:42.444Z,97699.28
2018-07-10T03:52:14.020Z,97693.34
2018-07-10T03:52:45.601Z,97698.84
2018-07-10T03:53:17.172Z,97700.08
2018-07-10T03:53:48.794Z,97702.58
2018-07-10T03:54:20.368Z,97699.98
2018-07-10T03:54:51.945Z,97706.37
2018-07-10T03:55:23.520Z,97692.66
2018-07-10T03:55:55.104Z,97701.16
2018-07-10T03:56:26.716Z,97698.50
2018-07-10T03:56:58.298Z,97691.58
2018-07-10T03:57:29.881Z,97698.33
2018-07-10T03:58:01.465Z,97701.28
2018-07-10T03:58:33.045Z,97697.78
2018-07-10T03:59:04.626Z,97693.52
2018-07-10T03:59:36.205Z,97699.83
2018-07-10T04:00:07.772Z,97703.68
2018-07-10T04:00:39.344Z,97699.39
2018-07-10T04:01:10.961Z,97699.39
2018-07-10T04:01:42.578Z,97703.23
2018-07-10T04:02:14.136Z,97704.96
2018-07-10T04:02:45.714Z,97708.00
2018-07-10T04:03:17.302Z,97709.30
2018-07-10T04:03:48.886Z,97706.39
2018-07-10T04:04:20.510Z,97704.69
2018-07-10T04:04:52.093Z,97714.97
2018-07-10T04:05:23.663Z,97709.92
2018-07-10T04:05:55.243Z,97717.19
2018-07-10T04:06:26.812Z,97713.78
2018-07-10T04:06:58.389Z,97717.64
2018-07-10T04:07:29.956Z,97714.66
2018-07-10T04:08:01.538Z,97718.10
2018-07-10T04:08:33.144Z,97719.86
2018-07-10T04:09:04.723Z,97716.03
2018-07-10T04:09:36.315Z,97720.72
2018-07-10T04:10:07.894Z,97719.00
2018-07-10T04:10:39.464Z,97719.81
2018-07-10T04:11:11.042Z,97718.53
2018-07-10T04:11:42.697Z,97715.08
2018-07-10T04:12:14.253Z,97718.91
2018-07-10T04:12:45.887Z,97718.48
2018-07-10T04:13:17.460Z,97716.27
2018-07-10T04:13:49.082Z,97712.30
2018-07-10T04:14:20.648Z,97718.11
2018-07-10T04:14:52.229Z,97719.38
2018-07-10T04:15:23.800Z,97714.34
2018-07-10T04:15:55.381Z,97719.58
2018-07-10T04:16:26.952Z,97716.69
2018-07-10T04:16:58.538Z,97721.89
2018-07-10T04:17:30.118Z,97715.50
2018-07-10T04:18:01.688Z,97713.78
2018-07-10T04:18:33.265Z,97716.77
2018-07-10T04:19:04.868Z,97720.61
2018-07-10T04:19:36.454Z,97716.70
2018-07-10T04:20:08.034Z,97718.85
2018-07-10T04:20:39.622Z,97716.77
2018-07-10T04:21:11.202Z,97716.34
2018-07-10T04:21:42.778Z,97721.03
2018-07-10T04:22:14.357Z,97717.62
2018-07-10T04:22:45.937Z,97718.48
2018-07-10T04:23:17.527Z,97721.94
2018-07-10T04:23:49.109Z,97721.94
2018-07-10T04:24:20.728Z,97721.95
2018-07-10T04:24:52.296Z,97715.16
2018-07-10T04:25:23.874Z,97714.31
2018-07-10T04:25:55.457Z,97715.59
2018-07-10T04:26:27.042Z,97718.17
2018-07-10T04:26:58.625Z,97714.33
2018-07-10T04:27:30.192Z,97713.06
2018-07-10T04:28:01.774Z,97711.78
2018-07-10T04:28:33.360Z,97710.55
2018-07-10T04:29:04.981Z,97710.55
2018-07-10T04:29:36.561Z,97707.57
2018-07-10T04:30:08.128Z,97704.59
2018-07-10T04:30:39.709Z,97710.58
2018-07-10T04:31:11.279Z,97705.02
2018-07-10T04:31:42.851Z,97708.01
2018-07-10T04:32:14.434Z,97705.00
2018-07-10T04:32:46.013Z,97707.13
2018-07-10T04:33:17.653Z,97701.50
2018-07-10T04:33:49.233Z,97698.48
2018-07-10T04:34:20.814Z,97698.83
2018-07-10T04:34:52.393Z,97700.02
2018-07-10T04:35:23.964Z,97700.36
2018-07-10T04:35:55.541Z,97699.06
2018-07-10T04:36:27.108Z,97701.11
2018-07-10T04:36:58.687Z,97693.89
2018-07-10T04:37:30.256Z,97694.23
2018-07-10T04:38:01.834Z,97698.85
2018-07-10T04:38:33.459Z,97694.16
2018-07-10T04:39:05.044Z,97694.56
2018-07-10T04:39:36.612Z,97698.41
2018-07-10T04:40:08.189Z,97692.44
2018-07-10T04:40:39.769Z,97692.40
2018-07-10T04:41:11.345Z,97692.84
2018-07-10T04:41:42.930Z,97694.56
2018-07-10T04:42:14.554Z,97689.88
2018-07-10T04:42:46.106Z,97695.01
2018-07-10T04:43:17.742Z,97695.01
2018-07-10T04:43:49.372Z,97696.70
2018-07-10T04:44:23.448Z,97697.57
2018-07-10T04:44:55.016Z,97689.88
2018-07-10T04:45:26.598Z,97691.16
2018-07-10T04:45:58.177Z,97694.56
2018-07-10T04:46:29.839Z,97691.17
2018-07-10T04:47:01.421Z,97692.95
2018-07-10T04:47:32.993Z,97691.33
2018-07-10T04:48:04.578Z,97689.66
2018-07-10T04:48:36.158Z,97698.27
2018-07-10T04:49:07.807Z,97696.15
2018-07-10T04:49:39.386Z,97695.33
2018-07-10T04:50:10.952Z,97692.81
2018-07-10T04:50:42.537Z,97697.53
2018-07-10T04:51:14.118Z,97687.27
2018-07-10T04:51:45.741Z,97694.09
2018-07-10T04:52:17.321Z,97688.55
2018-07-10T04:52:48.909Z,97692.84
2018-07-10T04:53:20.487Z,97681.72
2018-07-10T04:53:52.060Z,97693.67
2018-07-10T04:54:23.641Z,97680.02
2018-07-10T04:54:55.221Z,97686.44
2018-07-10T04:55:26.851Z,97687.30
2018-07-10T04:55:58.410Z,97680.47
2018-07-10T04:56:29.989Z,97684.81
2018-07-10T04:57:01.613Z,97680.12
2018-07-10T04:57:33.198Z,97680.98
2018-07-10T04:58:04.779Z,97684.77
2018-07-10T04:58:36.355Z,97677.87
2018-07-10T04:59:07.937Z,97683.78
2018-07-10T04:59:39.517Z,97684.59
2018-07-10T05:00:11.173Z,97687.92
2018-07-10T05:00:42.797Z,97692.97
2018-07-10T05:01:14.377Z,97687.54
2018-07-10T05:01:45.961Z,97694.22
2018-07-10T05:02:17.546Z,97692.52
2018-07-10T05:02:49.121Z,97696.29
2018-07-10T05:03:20.697Z,97695.01
2018-07-10T05:03:52.274Z,97695.84
2018-07-10T05:04:23.854Z,97697.57
2018-07-10T05:04:55.437Z,97691.55
2018-07-10T05:05:27.023Z,97693.28
2018-07-10T05:05:58.655Z,97696.27
2018-07-10T05:06:30.245Z,97700.53
2018-07-10T05:07:01.830Z,97700.95
2018-07-10T05:07:33.417Z,97698.83
2018-07-10T05:08:05.001Z,97698.41
2018-07-10T05:08:36.572Z,97701.82
2018-07-10T05:09:08.152Z,97703.10
2018-07-10T05:09:39.737Z,97699.67
2018-07-10T05:10:11.317Z,97705.25
2018-07-10T05:10:42.896Z,97705.27
2018-07-10T05:11:14.463Z,97709.98
2018-07-10T05:11:46.041Z,97706.18
2018-07-10T05:12:17.625Z,97705.28
2018-07-10T05:12:49.209Z,97705.28
2018-07-10T05:13:20.790Z,97705.76
2018-07-10T05:13:52.355Z,97702.77
2018-07-10T05:14:23.937Z,97710.49
2018-07-10T05:14:55.552Z,97700.65
2018-07-10T05:15:27.129Z,97700.65
2018-07-10T05:15:58.728Z,97703.23
2018-07-10T05:16:30.305Z,97698.95
2018-07-10T05:17:01.872Z,97700.65
2018-07-10T05:17:33.455Z,97698.95
2018-07-10T05:18:05.031Z,97693.00
2018-07-10T05:18:36.608Z,97693.42
2018-07-10T05:19:08.189Z,97694.70
2018-07-10T05:19:40.806Z,97693.84
2018-07-10T05:20:12.394Z,97692.53
2018-07-10T05:20:43.978Z,97698.87
2018-07-10T05:21:15.610Z,97689.51
2018-07-10T05:21:47.189Z,97684.33
2018-07-10T05:22:18.770Z,97689.02
2018-07-10T05:22:50.345Z,97686.89
2018-07-10T05:23:21.926Z,97684.28
2018-07-10T05:23:53.492Z,97685.56
2018-07-10T05:24:25.068Z,97683.84
2018-07-10T05:24:56.657Z,97686.87
2018-07-10T05:25:28.224Z,97679.58
2018-07-10T05:25:59.809Z,97684.28
2018-07-10T05:26:31.434Z,97684.28
2018-07-10T05:27:03.019Z,97681.72
2018-07-10T05:27:34.597Z,97682.14
2018-07-10T05:28:06.176Z,97687.27
2018-07-10T05:28:37.750Z,97688.55
2018-07-10T05:29:09.428Z,97688.50
2018-07-10T05:29:41.001Z,97694.48
2018-07-10T05:30:12.575Z,97691.06
2018-07-10T05:30:44.145Z,97688.99
2018-07-10T05:31:15.774Z,97693.68
2018-07-10T05:31:47.349Z,97688.57
2018-07-10T05:32:18.915Z,97692.00
2018-07-10T05:32:50.494Z,97687.29
2018-07-10T05:33:22.077Z,97688.99
2018-07-10T05:33:53.653Z,97692.42
2018-07-10T05:34:25.224Z,97688.15
2018-07-10T05:34:56.806Z,97689.44
2018-07-10T05:35:28.376Z,97692.02
2018-07-10T05:35:59.953Z,97692.44
2018-07-10T05:36:31.568Z,97692.84
2018-07-10T05:37:03.168Z,97691.98
2018-07-10T05:37:34.765Z,97687.29
2018-07-10T05:38:06.342Z,97696.70
2018-07-10T05:38:37.921Z,97694.98
2018-07-10T05:39:09.502Z,97694.55
2018-07-10T05:39:41.068Z,97694.13
2018-07-10T05:40:12.649Z,97694.91
2018-07-10T05:40:44.234Z,97692.81
2018-07-10T05:41:15.811Z,97698.31
2018-07-10T05:41:47.420Z,97697.48
2018-07-10T05:42:19.001Z,97700.88
2018-07-10T05:42:50.581Z,97691.12
2018-07-10T05:43:22.158Z,97699.18
2018-07-10T05:43:53.738Z,97696.19
2018-07-10T05:44:25.321Z,97695.33
2018-07-10T05:44:56.889Z,97696.19
2018-07-10T05:45:28.466Z,97697.48
2018-07-10T05:46:00.042Z,97693.70
2018-07-10T05:46:31.689Z,97693.28
2018-07-10T05:47:03.266Z,97697.13
2018-07-10T05:47:34.831Z,97697.16
2018-07-10T05:48:06.470Z,97695.92
2018-07-10T05:48:38.040Z,97694.66
2018-07-10T05:49:09.618Z,97695.94
2018-07-10T05:49:41.202Z,97693.40
2018-07-10T05:50:12.778Z,97697.66
2018-07-10T05:50:44.361Z,97694.26
2018-07-10T05:51:15.937Z,97700.25
2018-07-10T05:51:47.526Z,97697.73
2018-07-10T05:52:19.121Z,97698.64
2018-07-10T05:52:50.701Z,97695.66
2018-07-10T05:53:22.412Z,97699.13
2018-07-10T05:53:53.990Z,97699.16
2018-07-10T05:54:25.569Z,97700.45
2018-07-10T05:54:57.144Z,97696.61
2018-07-10T05:55:28.729Z,97700.04
2018-07-10T05:56:00.296Z,97701.38
2018-07-10T05:56:31.864Z,97702.67
2018-07-10T05:57:03.437Z,97700.11
2018-07-10T05:57:35.062Z,97702.25
2018-07-10T05:58:06.650Z,97701.41
2018-07-10T05:58:38.298Z,97710.83
2018-07-10T05:59:09.872Z,97707.41
2018-07-10T05:59:41.440Z,97713.81
2018-07-10T06:00:13.023Z,97709.97
2018-07-10T06:00:44.605Z,97709.60
2018-07-10T06:01:16.226Z,97717.30
2018-07-10T06:01:47.844Z,97713.45
2018-07-10T06:02:19.441Z,97711.32
2018-07-10T06:02:51.025Z,97710.47
2018-07-10T06:03:22.602Z,97711.77
2018-07-10T06:03:54.186Z,97718.17
2018-07-10T06:04:25.761Z,97708.78
2018-07-10T06:04:57.346Z,97710.48
2018-07-10T06:05:28.925Z,97712.63
2018-07-10T06:06:00.505Z,97712.63
2018-07-10T06:06:32.085Z,97710.06
2018-07-10T06:07:03.671Z,97709.22
2018-07-10T06:07:35.253Z,97712.63
2018-07-10T06:08:06.833Z,97718.20
2018-07-10T06:08:38.410Z,97711.78
2018-07-10T06:09:09.979Z,97714.82
2018-07-10T06:09:41.552Z,97708.85
2018-07-10T06:10:13.130Z,97718.20
2018-07-10T06:10:44.714Z,97721.23
2018-07-10T06:11:16.342Z,97713.93